Akraberg, Faroe Islands

5:45 AM WEST on September 03, 2014 (GMT +0100)
Vagar | Change Station
CLOSE
Current Station
Airport
Location: Vagar,
Elevation: 279 ft
Nearby Weather Stations

Elev 279 ft 62.07 °N, 7.28 °W | Updated 25 minutes ago

Overcast
Overcast
54 °F
Feels Like 54 °F
N
18
Wind Variable Wind from South

Today
High -- | Low -- °F
--% Chance of Precip.
Yesterday
High -- | Low -- °F
Precip. -- in
6:22 AM 8:28 PM
First Quarter, 58% visible
Pressure 29.95 in
Visibility 6.2 miles
Clouds Overcast 500 ft
Dew Point 52 °F
Humidity 94%
Rainfall 0.00 in
Snow Depth Not available.
UV 0 out of 12
Pollen Not available.
Air Quality Not available.
Flu Activity Not available.
METAR EKVG 030420Z AUTO 19016KT 9999NDV OVC005/// 12/11 Q1014 RMK OVC006/// WIND 850FT 22013G28KT 170V300

More Conditions Fewer Conditions

Pressure 29.95 in
Visibility 6.2 miles
Clouds Overcast 500 ft
Dew Point 52 °F
Humidity 94%
Rainfall 0.00 in
Snow Depth Not available.
UV 0 out of 12
Pollen Not available.
Air Quality Not available.
Flu Activity Not available.
METAR EKVG 030420Z AUTO 19016KT 9999NDV OVC005/// 12/11 Q1014 RMK OVC006/// WIND 850FT 22013G28KT 170V300

More Conditions Fewer Conditions

10-Day Weather Forecast

Almanac

Astronomy

Sep. 03, 2014 Rise Set
Actual Time 6:22 AM WEST 8:28 PM WEST
Civil Twilight 5:35 AM WEST 9:14 PM WEST
Nautical Twilight 4:33 AM WEST 10:15 PM WEST
Astronomical Twilight 3:11 AM WEST 11:35 PM WEST
Moon 4:55 PM WEST No Moon Set
Length of Visible Light 15h 39m
Length of Day
14h 05m
Tomorrow will be 5m 42s shorter.
First Quarter, 58% of the Moon is Illuminated
Today
First Quarter
Sep 8
Full
Sep 15
Last Quarter
Sep 24
New
Oct 1
First Quarter

Yesterday's Extremes

Country Highs Country Lows

Community

WunderPhotos

Upload Photos

1,749,875 photos uploaded!

Nearby

Snow Depth

Not available.

Earthquake Activity

City Distance Mag. Time & Date
No recent earthquake activity has been reported nearby.
Minimum magnitude displayed is 2.5.

Coastal Water Temperatures

Place Temperature
No Stations Reporting

Nearby Weather Stations